Bookmark and Share
Track history (hours):
 

Olympic Champion

Last reported at 2014-Apr-24 19:25 UTC. Time now 2014-Apr-24 20:10 UTC.
Position N 37°36' E 023°43'.

Length 204 m; draft 6.4 m.

Type: Passenger vessel. MMSI: 237280000.

NotesDate/timePositionNaut miles runAvg speedWind from/ knotsBaromVisibWave heightAir tempDewpointWater temp
2014-Apr-24 19:25N 37°36' E 023°43'1618.4
2014-Apr-24 18:33N 37°51' E 023°37'5 5.5
2014-Apr-24 17:33N 37°57' E 023°38'0 0.0
2014-Apr-24 16:33N 37°57' E 023°38'0 0.0
2014-Apr-24 15:33N 37°57' E 023°38'0 0.0
2014-Apr-24 14:33N 37°57' E 023°38'0 0.0
2014-Apr-24 13:33N 37°57' E 023°38'0 0.0
2014-Apr-24 12:33N 37°57' E 023°38'0 0.0
2014-Apr-24 11:33N 37°57' E 023°38'0 0.0
2014-Apr-24 10:33N 37°57' E 023°38'0 0.0
2014-Apr-24 09:33N 37°57' E 023°38'0 0.0
2014-Apr-24 08:33N 37°57' E 023°38'0 0.0
2014-Apr-24 07:33N 37°57' E 023°38'0 0.0
2014-Apr-24 06:33N 37°57' E 023°38'0 0.0
2014-Apr-24 05:33N 37°57' E 023°38'0 0.0
2014-Apr-24 04:33N 37°57' E 023°38'0 0.0
2014-Apr-24 03:33N 37°57' E 023°38'4 4.4
2014-Apr-24 02:33N 37°52' E 023°38'7418.4
2014-Apr-23 22:31N 36°40' E 023°59'1818.5
2014-Apr-23 21:33N 36°22' E 024°03'1818.6
2014-Apr-23 20:33N 36°04' E 024°07'31 1.7
2014-Apr-23 02:15N 35°33' E 024°14'1318.7
2014-Apr-23 01:33N 35°46' E 024°11'1918.8
2014-Apr-23 00:33N 36°05' E 024°07'1918.6
2014-Apr-22 23:33N 36°23' E 024°03'1918.8
2014-Apr-22 22:33N 36°42' E 023°59'1918.8
2014-Apr-22 21:32N 37°00' E 023°54'2019.0
2014-Apr-22 20:30N 37°19' E 023°48'1818.5
2014-Apr-22 19:33N 37°36' E 023°43'1818.3
2014-Apr-22 18:33N 37°54' E 023°37'3 3.1
2014-Apr-22 17:33N 37°57' E 023°38'0 0.0
2014-Apr-22 16:33N 37°57' E 023°38'0 0.0
2014-Apr-22 15:33N 37°57' E 023°38'0 0.0
2014-Apr-22 14:33N 37°57' E 023°38'0 0.0
2014-Apr-22 13:33N 37°57' E 023°38'0 0.0
2014-Apr-22 12:33N 37°57' E 023°38'0 0.0
2014-Apr-22 11:33N 37°57' E 023°38'0 0.0
2014-Apr-22 10:33N 37°57' E 023°38'0 0.0
2014-Apr-22 09:33N 37°57' E 023°38'0 0.0
2014-Apr-22 08:33N 37°57' E 023°38'0 0.0
2014-Apr-22 07:33N 37°57' E 023°38'0 0.0
2014-Apr-22 06:33N 37°57' E 023°38'0 0.0
2014-Apr-22 05:33N 37°57' E 023°38'0 0.0
2014-Apr-22 04:33N 37°57' E 023°38'0 0.0
2014-Apr-22 03:33N 37°57' E 023°38'1 0.6
2014-Apr-22 02:33N 37°56' E 023°38'1716.4
2014-Apr-22 01:33N 37°41' E 023°46'6118.3
2014-Apr-21 22:14N 36°41' E 023°59'1319.0
2014-Apr-21 21:33N 36°29' E 024°01'1919.2
2014-Apr-21 20:33N 36°10' E 024°06'1919.4
2014-Apr-21 19:33N 35°51' E 024°10'  
2014-Apr-18 19:32N 37°34' E 023°44'1818.5
2014-Apr-18 18:33N 37°52' E 023°37'5 2.2
2014-Apr-18 16:07N 37°57' E 023°38'0 0.0
2014-Apr-18 15:29N 37°57' E 023°38'0 0.0
2014-Apr-18 14:33N 37°57' E 023°38'0 0.0
2014-Apr-18 13:33N 37°57' E 023°38'0 0.0
2014-Apr-18 11:07N 37°57' E 023°38'1 0.2
2014-Apr-18 02:32N 37°56' E 023°37'1818.1
2014-Apr-18 01:33N 37°39' E 023°44'6118.2
2014-Apr-17 22:14N 36°40' E 023°59'2118.6
2014-Apr-17 21:05N 36°19' E 024°04'22 1.1
2014-Apr-17 01:28N 35°57' E 024°08'2017.5
2014-Apr-17 00:19N 36°17' E 024°04'1617.3
2014-Apr-16 23:22N 36°33' E 024°01'1517.8
2014-Apr-16 22:31N 36°48' E 023°58'5318.1
2014-Apr-16 19:33N 37°40' E 023°42'1716.6
2014-Apr-16 18:33N 37°56' E 023°38'1 0.7
2014-Apr-16 17:33N 37°57' E 023°38'0 0.0
2014-Apr-16 16:33N 37°57' E 023°38'0 0.0
2014-Apr-16 15:33N 37°57' E 023°38'0 0.0
2014-Apr-16 14:33N 37°57' E 023°38'0 0.0
2014-Apr-16 13:33N 37°57' E 023°38'0 0.0
2014-Apr-16 12:33N 37°57' E 023°38'0 0.0
2014-Apr-16 11:33N 37°57' E 023°38'0 0.0
2014-Apr-16 10:33N 37°57' E 023°38'0 0.0
2014-Apr-16 09:34N 37°57' E 023°38'0 0.0
2014-Apr-16 08:33N 37°57' E 023°38'0 0.0
2014-Apr-16 07:33N 37°57' E 023°38'0 0.0
2014-Apr-16 06:31N 37°57' E 023°38'0 0.0
2014-Apr-16 05:33N 37°57' E 023°38'0 0.0
2014-Apr-16 04:33N 37°57' E 023°38'0 0.0
2014-Apr-16 03:33N 37°57' E 023°38'3 3.5
2014-Apr-16 02:33N 37°53' E 023°38'5417.9
2014-Apr-15 23:33N 37°01' E 023°55'2118.3
2014-Apr-15 22:25N 36°41' E 023°59'1618.8
2014-Apr-15 21:33N 36°24' E 024°02'1919.1
2014-Apr-15 20:33N 36°06' E 024°07'1919.0
2014-Apr-15 19:33N 35°47' E 024°10'1817.8
2014-Apr-15 18:33N 35°29' E 024°11'74 3.5
2014-Apr-14 21:34N 36°43' E 024°00'1918.4
2014-Apr-14 20:31N 37°02' E 023°57'1818.5
2014-Apr-14 19:31N 37°20' E 023°51'  

Dump ship's entire track history

sailing weather and tide predictions

Olympic Champion — SYWD — position and weather